CheckWX is a tool to help pilots better visualize weather data.  It is not intended as a substitute for an official pre-flight weather briefing.

06:29:49 UTC

Y70 METAR
Ionia County Airport
Ionia, Michigan, USA
Current

14 mins ago

KY70 230616Z AUTO 22012G17KT 10SM CLR 02/M06 A3005 RMK AO2 T00221061
Observed
Feb-23 @ 06:16 UTC
Wind
  • 220° at 12 KTS
  • Gusting to 17 KTS
Visibility
10 SM
Flight Rules
VFR
Cloud Levels
  • Clear skies
Temperature
C / 36°F
Dewpoint
-6°C / 21°F
Humidity
56%
Altimeter
30.05" Hg
Pressure
1017.62 hPa
Previous

34 mins ago

KY70 230556Z AUTO 22012G20KT 10SM CLR 03/M06 A3006 RMK AO2 T00261061 10034 20016 400531042
Observed
Feb-23 @ 05:56 UTC
Wind
  • 220° at 12 KTS
  • Gusting to 20 KTS
Visibility
10 SM
Flight Rules
VFR
Cloud Levels
  • Clear skies
Temperature
C / 37°F
Dewpoint
-6°C / 21°F
Humidity
52%
Altimeter
30.06" Hg
Pressure
1017.92 hPa
Previous

54 mins ago

KY70 230536Z AUTO 22011KT 10SM CLR 03/M06 A3006 RMK AO2 T00281059
Observed
Feb-23 @ 05:36 UTC
Wind
  • 220° at 11 KTS
Visibility
10 SM
Flight Rules
VFR
Cloud Levels
  • Clear skies
Temperature
C / 37°F
Dewpoint
-6°C / 21°F
Humidity
52%
Altimeter
30.06" Hg
Pressure
1017.92 hPa